Winston, New Mexico
Current Conditions -  °F | °C
As of 1:53 AM on Thursday 23 Oct 2014 (Local Time) from KTCS Reporting Station
Clear Clear  
Wind Chill: 56°   Ceiling: Unl
Heat Index: 56°   Visibility: 10mi
Dew Point: 50°   Wind: 6mph
Humidity: 80%   Direction: 290°WNW
Pressure: 30.18"   Gusts: NA
Location:  33.33°N, 107.65°W
Report Text: KTCS 230753Z AUTO 29005KT 10SM CLR 13/10 A3018 RMK AO2 SLP156 T01330100 TSNO $
Loading
Personal Weather Stations






























Interactive Weather Map
Tropical Storm Tracking
New forecast layout! Learn more

10-Day Weather Forecast

Advertisements
Track Severe Weather on mobile